createdAt,value
2022-12-09T00:02:00.910Z,29.83
2022-12-09T00:04:27.750Z,30.13
2022-12-09T00:06:54.322Z,28.77
2022-12-09T00:09:20.819Z,29.25
2022-12-09T00:11:47.309Z,29.27
2022-12-09T00:14:14.059Z,29.10
2022-12-09T00:16:40.906Z,29.13
2022-12-09T00:19:07.578Z,31.40
2022-12-09T00:21:34.763Z,29.98
2022-12-09T00:24:05.110Z,30.65
2022-12-09T00:26:32.498Z,30.10
2022-12-09T00:28:59.409Z,28.58
2022-12-09T00:31:28.782Z,31.10
2022-12-09T00:33:58.049Z,30.52
2022-12-09T00:36:25.248Z,30.05
2022-12-09T00:38:53.361Z,29.25
2022-12-09T00:41:19.885Z,30.50
2022-12-09T00:43:46.392Z,28.80
2022-12-09T00:46:14.528Z,29.17
2022-12-09T00:48:42.119Z,31.38
2022-12-09T00:51:13.657Z,31.02
2022-12-09T00:56:07.066Z,28.92
2022-12-09T00:58:33.889Z,30.70
2022-12-09T01:01:00.869Z,29.58
2022-12-09T01:03:27.624Z,28.88
2022-12-09T01:05:55.369Z,29.65
2022-12-09T01:08:22.503Z,30.50
2022-12-09T01:10:49.197Z,30.08
2022-12-09T01:13:16.415Z,29.30
2022-12-09T01:15:43.741Z,31.27
2022-12-09T01:18:12.085Z,30.67
2022-12-09T01:20:39.367Z,31.85
2022-12-09T01:23:06.018Z,30.92
2022-12-09T01:25:32.912Z,31.10
2022-12-09T01:27:59.759Z,33.65
2022-12-09T01:30:26.529Z,30.83
2022-12-09T01:32:53.319Z,30.27
2022-12-09T01:35:19.911Z,30.35
2022-12-09T01:37:46.770Z,29.98
2022-12-09T01:40:17.022Z,30.58
2022-12-09T01:42:44.103Z,29.15
2022-12-09T01:45:19.858Z,27.00
2022-12-09T01:48:12.224Z,31.40
2022-12-09T01:50:42.943Z,28.63
2022-12-09T01:53:11.886Z,30.00
2022-12-09T01:55:39.275Z,30.17
2022-12-09T01:58:05.795Z,29.08
2022-12-09T02:00:32.424Z,30.95
2022-12-09T02:03:00.998Z,28.33
2022-12-09T02:09:14.481Z,28.95
2022-12-09T02:12:14.034Z,30.67
2022-12-09T02:14:45.404Z,29.05
2022-12-09T02:17:32.406Z,27.50
2022-12-09T02:20:17.353Z,27.33
2022-12-09T02:22:48.203Z,27.25
2022-12-09T02:25:25.956Z,19.88
2022-12-09T02:28:26.529Z,26.65
2022-12-09T02:31:14.930Z,26.35
2022-12-09T02:34:15.503Z,25.02
2022-12-09T02:36:59.068Z,23.65
2022-12-09T02:39:52.620Z,24.52
2022-12-09T02:42:22.892Z,23.95
2022-12-09T02:44:51.455Z,24.80
2022-12-09T02:47:25.245Z,25.55
2022-12-09T02:49:58.042Z,25.48
2022-12-09T02:52:25.270Z,24.08
2022-12-09T02:54:52.082Z,23.83
2022-12-09T02:57:24.646Z,24.10
2022-12-09T02:59:51.275Z,24.50
2022-12-09T03:02:24.355Z,22.92
2022-12-09T03:05:25.214Z,23.95
2022-12-09T03:08:03.366Z,22.55
2022-12-09T03:10:29.863Z,23.40
2022-12-09T03:13:06.305Z,23.77
2022-12-09T03:15:37.766Z,23.63
2022-12-09T03:20:37.172Z,22.70
2022-12-09T03:23:06.491Z,23.25
2022-12-09T03:25:39.747Z,24.92
2022-12-09T03:28:13.154Z,24.08
2022-12-09T03:30:44.669Z,23.23
2022-12-09T03:35:44.650Z,23.67
2022-12-09T03:38:16.133Z,22.48
2022-12-09T03:43:14.177Z,22.63
2022-12-09T03:45:41.868Z,24.08
2022-12-09T03:48:09.737Z,24.13
2022-12-09T03:50:50.991Z,24.83
2022-12-09T03:53:23.400Z,24.80
2022-12-09T03:56:10.260Z,24.88
2022-12-09T03:58:39.868Z,23.15
2022-12-09T04:01:07.843Z,24.05
2022-12-09T04:03:34.901Z,23.90
2022-12-09T04:06:02.230Z,25.83
2022-12-09T04:08:28.820Z,24.90
2022-12-09T04:10:55.763Z,25.60
2022-12-09T04:13:22.513Z,23.42
2022-12-09T04:15:48.992Z,24.98
2022-12-09T04:18:15.671Z,26.15
2022-12-09T04:20:42.146Z,23.60
2022-12-09T04:23:08.736Z,24.20
2022-12-09T04:25:37.149Z,24.20
2022-12-09T04:28:04.213Z,22.88
2022-12-09T04:30:30.876Z,24.40
2022-12-09T04:33:00.077Z,24.25
2022-12-09T04:35:27.629Z,23.55
2022-12-09T04:37:54.247Z,23.80
2022-12-09T04:40:23.954Z,23.60
2022-12-09T04:42:51.297Z,24.00
2022-12-09T04:45:18.007Z,25.08
2022-12-09T04:47:44.834Z,23.88
2022-12-09T04:50:12.347Z,22.85
2022-12-09T04:52:39.913Z,24.02
2022-12-09T04:55:07.004Z,23.02
2022-12-09T04:57:33.406Z,22.33
2022-12-09T04:59:59.836Z,22.15
2022-12-09T05:02:26.707Z,23.08
2022-12-09T05:04:53.905Z,22.63
2022-12-09T05:07:21.088Z,23.90
2022-12-09T05:09:48.083Z,22.83
2022-12-09T05:12:14.757Z,22.25
2022-12-09T05:14:41.203Z,23.20
2022-12-09T05:17:07.742Z,23.00
2022-12-09T05:19:34.572Z,23.45
2022-12-09T05:22:01.161Z,24.02
2022-12-09T05:24:27.943Z,24.17
2022-12-09T05:26:54.861Z,24.27
2022-12-09T05:29:23.560Z,22.80
2022-12-09T05:31:51.768Z,23.88
2022-12-09T05:34:19.052Z,22.85
2022-12-09T05:36:46.172Z,22.75
2022-12-09T05:39:12.824Z,23.88
2022-12-09T05:41:39.542Z,24.08
2022-12-09T05:44:06.366Z,23.20
2022-12-09T05:46:33.019Z,24.33
2022-12-09T05:48:59.697Z,22.85
2022-12-09T05:51:29.302Z,22.75
2022-12-09T05:53:57.559Z,23.08
2022-12-09T05:56:25.154Z,22.65
2022-12-09T05:58:53.322Z,22.33
2022-12-09T06:01:20.758Z,24.45
2022-12-09T06:03:48.306Z,23.50
2022-12-09T06:06:18.002Z,23.88
2022-12-09T06:08:46.098Z,21.85
2022-12-09T06:11:18.877Z,23.30
2022-12-09T06:13:46.709Z,24.67
2022-12-09T06:16:15.358Z,21.98
2022-12-09T06:18:54.452Z,23.42
2022-12-09T06:21:22.229Z,22.45
2022-12-09T06:23:50.005Z,23.92
2022-12-09T06:26:25.449Z,23.60
2022-12-09T06:28:53.054Z,22.55
2022-12-09T06:31:20.540Z,23.27
2022-12-09T06:33:57.132Z,21.48
2022-12-09T06:36:29.099Z,23.25
2022-12-09T06:41:25.199Z,22.35
2022-12-09T06:43:53.250Z,24.15
2022-12-09T06:46:26.475Z,25.42
2022-12-09T06:48:55.148Z,23.23
2022-12-09T06:51:36.976Z,22.83
2022-12-09T06:54:07.035Z,24.85
2022-12-09T06:56:34.588Z,23.63
2022-12-09T06:59:21.726Z,24.33
2022-12-09T07:01:48.876Z,23.48
2022-12-09T07:04:16.018Z,21.90
2022-12-09T07:06:45.231Z,23.05
2022-12-09T07:09:20.972Z,24.35
2022-12-09T07:18:16.132Z,22.90
2022-12-09T07:20:42.984Z,22.95
2022-12-09T07:23:16.099Z,23.40
2022-12-09T07:25:43.412Z,24.25
2022-12-09T07:28:40.610Z,23.83
2022-12-09T07:30:58.095Z,23.67
2022-12-09T07:33:24.884Z,25.23
2022-12-09T07:35:56.338Z,25.65
2022-12-09T07:38:24.406Z,23.85
2022-12-09T07:40:51.572Z,25.55
2022-12-09T07:43:19.291Z,26.23
2022-12-09T07:45:46.473Z,24.52
2022-12-09T07:48:13.496Z,26.38
2022-12-09T07:50:40.278Z,25.42
2022-12-09T07:53:07.414Z,26.40
2022-12-09T07:55:34.742Z,26.48
2022-12-09T07:58:01.678Z,27.77
2022-12-09T08:00:28.777Z,26.80
2022-12-09T08:02:55.450Z,26.83
2022-12-09T08:05:22.821Z,27.08
2022-12-09T08:07:49.630Z,26.10
2022-12-09T08:10:17.255Z,27.05
2022-12-09T08:12:45.596Z,25.92
2022-12-09T08:15:13.164Z,27.63
2022-12-09T08:17:40.541Z,25.98
2022-12-09T08:20:08.567Z,24.60
2022-12-09T08:22:35.840Z,26.38
2022-12-09T08:25:03.031Z,26.67
2022-12-09T08:27:30.410Z,26.40
2022-12-09T08:29:57.068Z,27.73
2022-12-09T08:32:26.596Z,27.02
2022-12-09T08:35:17.690Z,24.75
2022-12-09T08:37:45.862Z,26.85
2022-12-09T08:40:13.801Z,24.98
2022-12-09T08:42:41.261Z,26.50
2022-12-09T08:45:08.045Z,24.50
2022-12-09T08:47:35.478Z,23.55
2022-12-09T08:50:03.041Z,24.70
2022-12-09T08:52:31.455Z,23.88
2022-12-09T08:54:59.999Z,28.58
2022-12-09T08:57:33.153Z,30.60
2022-12-09T08:59:59.820Z,27.25
2022-12-09T09:02:26.721Z,27.00
2022-12-09T09:04:54.035Z,25.58
2022-12-09T09:07:21.898Z,25.27
2022-12-09T09:09:48.783Z,25.35
2022-12-09T09:12:15.553Z,26.33
2022-12-09T09:14:42.664Z,24.83
2022-12-09T09:17:12.778Z,24.42
2022-12-09T09:19:39.939Z,22.80
2022-12-09T09:22:06.799Z,22.63
2022-12-09T09:24:33.911Z,21.67
2022-12-09T09:27:00.994Z,21.98
2022-12-09T09:29:27.664Z,23.13
2022-12-09T09:31:55.354Z,23.27
2022-12-09T09:34:25.052Z,24.23
2022-12-09T09:36:52.119Z,25.70
2022-12-09T09:39:20.135Z,23.48
2022-12-09T09:42:07.802Z,21.05
2022-12-09T09:44:46.481Z,23.10
2022-12-09T09:47:18.268Z,20.42
2022-12-09T09:49:56.386Z,23.27
2022-12-09T09:52:26.816Z,23.77
2022-12-09T09:54:54.068Z,22.67
2022-12-09T09:57:33.301Z,24.25
2022-12-09T10:00:20.683Z,24.15
2022-12-09T10:03:00.196Z,22.90
2022-12-09T10:05:49.964Z,22.95
2022-12-09T10:08:37.739Z,23.60
2022-12-09T10:11:16.994Z,25.15
2022-12-09T10:13:58.380Z,24.70
2022-12-09T10:16:34.159Z,24.58
2022-12-09T10:19:05.995Z,24.45
2022-12-09T10:21:44.639Z,23.58
2022-12-09T10:24:20.022Z,22.45
2022-12-09T10:27:30.562Z,23.63
2022-12-09T10:30:08.785Z,22.33
2022-12-09T10:32:46.586Z,24.00
2022-12-09T10:35:31.281Z,20.92
2022-12-09T10:38:10.430Z,22.23
2022-12-09T10:40:55.263Z,22.70
2022-12-09T10:43:41.028Z,22.02
2022-12-09T10:46:21.474Z,21.55
2022-12-09T10:48:48.947Z,21.58
2022-12-09T10:51:31.140Z,20.88
2022-12-09T10:54:04.426Z,20.98
2022-12-09T10:56:40.689Z,21.65
2022-12-09T10:59:24.035Z,21.52
2022-12-09T11:01:54.200Z,18.40
2022-12-09T11:04:33.134Z,24.20
2022-12-09T11:07:13.065Z,17.80
2022-12-09T11:10:00.745Z,18.33
2022-12-09T11:12:29.952Z,18.33
2022-12-09T11:15:02.913Z,16.70
2022-12-09T11:17:36.253Z,17.25
2022-12-09T11:20:06.555Z,18.05
2022-12-09T11:22:40.291Z,17.45
2022-12-09T11:25:32.475Z,17.20
2022-12-09T11:28:08.696Z,16.05
2022-12-09T11:30:57.798Z,19.08
2022-12-09T11:36:22.386Z,16.23
2022-12-09T11:38:51.756Z,17.52
2022-12-09T11:41:40.240Z,18.75
2022-12-09T11:44:17.555Z,20.40
2022-12-09T11:46:44.232Z,22.70
2022-12-09T11:49:16.849Z,21.23
2022-12-09T11:51:59.569Z,22.35
2022-12-09T11:54:30.280Z,23.48
2022-12-09T11:56:59.050Z,24.02
2022-12-09T11:59:38.021Z,24.92
2022-12-09T12:02:14.051Z,27.67
2022-12-09T12:05:19.867Z,23.13
2022-12-09T12:08:40.467Z,24.85
2022-12-09T12:11:15.000Z,24.67
2022-12-09T12:13:50.726Z,25.63
2022-12-09T12:16:39.028Z,26.52
2022-12-09T12:19:13.397Z,25.83
2022-12-09T12:22:18.389Z,28.13
2022-12-09T12:24:56.796Z,25.33
2022-12-09T12:27:29.716Z,26.77
2022-12-09T12:30:27.658Z,28.63
2022-12-09T12:36:26.064Z,33.15
2022-12-09T12:39:26.329Z,30.67
2022-12-09T12:42:03.092Z,32.88
2022-12-09T12:44:57.226Z,34.55
2022-12-09T12:47:32.566Z,36.55
2022-12-09T12:50:36.644Z,39.75
2022-12-09T12:53:40.206Z,36.10
2022-12-09T12:56:23.465Z,36.80
2022-12-09T12:58:52.698Z,39.00
2022-12-09T13:01:31.200Z,36.85
2022-12-09T13:04:24.405Z,39.92
2022-12-09T13:07:02.182Z,39.13
2022-12-09T13:10:16.344Z,39.10
2022-12-09T13:12:58.258Z,36.88
2022-12-09T13:15:37.065Z,38.35
2022-12-09T13:18:24.284Z,34.80
2022-12-09T13:20:53.639Z,34.22
2022-12-09T13:23:32.360Z,36.25
2022-12-09T13:26:20.375Z,35.80
2022-12-09T13:29:12.361Z,32.75
2022-12-09T13:31:50.012Z,32.65
2022-12-09T13:34:36.317Z,31.73
2022-12-09T13:37:03.996Z,31.80
2022-12-09T13:39:39.514Z,30.73
2022-12-09T13:43:07.774Z,30.75
2022-12-09T13:45:35.547Z,26.23
2022-12-09T13:48:25.632Z,27.15
2022-12-09T13:50:59.682Z,27.30
2022-12-09T13:53:33.998Z,28.40
2022-12-09T13:56:03.815Z,26.38
2022-12-09T13:58:52.126Z,25.35
2022-12-09T14:01:23.596Z,25.13
2022-12-09T14:06:37.325Z,24.83
2022-12-09T14:09:19.881Z,23.17
2022-12-09T14:11:57.869Z,22.98
2022-12-09T14:14:24.370Z,22.83
2022-12-09T14:16:55.957Z,22.52
2022-12-09T14:19:25.460Z,22.75
2022-12-09T14:22:17.148Z,21.35
2022-12-09T14:27:14.937Z,21.70
2022-12-09T14:30:04.030Z,22.92
2022-12-09T14:32:49.122Z,22.95
2022-12-09T14:35:15.608Z,22.85
2022-12-09T14:37:54.172Z,22.55
2022-12-09T14:40:37.441Z,23.55
2022-12-09T14:43:49.914Z,24.88
2022-12-09T14:46:33.721Z,22.20
2022-12-09T14:49:17.622Z,24.02
2022-12-09T14:51:50.597Z,23.67
2022-12-09T14:54:45.216Z,25.77
2022-12-09T14:57:24.441Z,25.98
2022-12-09T14:59:54.054Z,26.58
2022-12-09T15:02:30.048Z,25.92
2022-12-09T15:05:03.010Z,25.10
2022-12-09T15:07:31.835Z,23.98
2022-12-09T15:09:59.637Z,25.00
2022-12-09T15:12:36.783Z,26.10
2022-12-09T15:15:11.282Z,25.10
2022-12-09T15:17:45.256Z,25.33
2022-12-09T15:20:22.512Z,23.73
2022-12-09T15:22:52.808Z,24.13
2022-12-09T15:25:21.337Z,27.07
2022-12-09T15:28:01.202Z,23.85
2022-12-09T15:30:31.997Z,25.45
2022-12-09T15:32:59.118Z,27.00
2022-12-09T15:35:33.640Z,25.08
2022-12-09T15:38:04.823Z,25.63
2022-12-09T15:40:33.283Z,25.42
2022-12-09T15:43:04.858Z,23.35
2022-12-09T15:45:36.560Z,24.10
2022-12-09T15:48:19.369Z,24.17
2022-12-09T15:50:51.404Z,23.92
2022-12-09T15:53:35.075Z,24.65
2022-12-09T15:56:13.515Z,26.95
2022-12-09T15:58:46.669Z,24.05
2022-12-09T16:01:25.419Z,23.15
2022-12-09T16:03:53.718Z,23.60
2022-12-09T16:06:31.232Z,23.90
2022-12-09T16:08:58.161Z,24.08
2022-12-09T16:11:43.385Z,24.73
2022-12-09T16:14:10.881Z,24.67
2022-12-09T16:16:49.503Z,24.63
2022-12-09T16:19:26.762Z,24.45
2022-12-09T16:22:16.554Z,23.90
2022-12-09T16:25:13.799Z,22.35
2022-12-09T16:27:39.745Z,27.13
2022-12-09T16:30:27.192Z,26.38
2022-12-09T16:32:58.741Z,25.83
2022-12-09T16:35:28.419Z,26.02
2022-12-09T16:37:57.462Z,26.65
2022-12-09T16:40:23.893Z,25.02
2022-12-09T16:42:53.403Z,27.77
2022-12-09T16:45:32.502Z,26.95
2022-12-09T16:47:59.841Z,27.13
2022-12-09T16:50:30.811Z,26.88
2022-12-09T16:52:59.084Z,27.98
2022-12-09T16:55:28.486Z,27.67
2022-12-09T16:57:55.957Z,25.15
2022-12-09T17:00:22.422Z,23.00
2022-12-09T17:02:52.348Z,24.58
2022-12-09T17:05:19.366Z,24.67
2022-12-09T17:07:45.855Z,24.25
2022-12-09T17:10:15.036Z,24.13
2022-12-09T17:12:41.997Z,25.63
2022-12-09T17:15:20.526Z,24.42
2022-12-09T17:17:48.921Z,25.92
2022-12-09T17:20:16.270Z,27.83
2022-12-09T17:22:42.873Z,24.77
2022-12-09T17:25:10.297Z,29.60
2022-12-09T17:27:37.326Z,30.20
2022-12-09T17:30:04.649Z,29.90
2022-12-09T17:32:31.403Z,29.67
2022-12-09T17:34:58.065Z,31.70
2022-12-09T17:37:25.083Z,30.27
2022-12-09T17:39:56.867Z,29.85
2022-12-09T17:42:28.162Z,29.85
2022-12-09T17:44:54.621Z,27.95
2022-12-09T17:47:21.150Z,29.15
2022-12-09T17:49:47.757Z,27.83
2022-12-09T17:52:14.465Z,29.98
2022-12-09T17:54:40.874Z,26.50
2022-12-09T17:57:07.383Z,28.15
2022-12-09T17:59:33.990Z,27.75
2022-12-09T18:02:03.643Z,30.08
2022-12-09T18:04:31.367Z,30.42
2022-12-09T18:06:57.990Z,30.83
2022-12-09T18:09:24.585Z,32.22
2022-12-09T18:11:54.076Z,33.58
2022-12-09T18:14:20.871Z,34.08
2022-12-09T18:16:49.079Z,31.35
2022-12-09T18:19:18.245Z,31.83
2022-12-09T18:21:45.050Z,29.60
2022-12-09T18:24:11.698Z,28.70
2022-12-09T18:26:41.715Z,27.15
2022-12-09T18:29:09.556Z,26.80
2022-12-09T18:31:36.543Z,29.15
2022-12-09T18:34:03.024Z,27.05
2022-12-09T18:36:29.722Z,28.60
2022-12-09T18:38:57.953Z,28.60
2022-12-09T18:41:27.411Z,30.08
2022-12-09T18:43:55.114Z,30.45
2022-12-09T18:46:28.125Z,32.15
2022-12-09T18:49:00.039Z,30.77
2022-12-09T18:51:27.258Z,27.52
2022-12-09T18:53:53.984Z,26.90
2022-12-09T18:56:20.565Z,28.90
2022-12-09T18:59:05.819Z,29.58
2022-12-09T19:01:34.014Z,30.27
2022-12-09T19:04:02.872Z,29.23
2022-12-09T19:06:29.304Z,30.55
2022-12-09T19:09:02.099Z,28.75
2022-12-09T19:11:31.244Z,31.10
2022-12-09T19:13:58.359Z,30.73
2022-12-09T19:16:26.232Z,28.65
2022-12-09T19:18:56.112Z,27.90
2022-12-09T19:21:24.120Z,25.10
2022-12-09T19:23:50.729Z,27.15
2022-12-09T19:26:20.444Z,27.48
2022-12-09T19:28:55.651Z,28.13
2022-12-09T19:31:26.574Z,26.48
2022-12-09T19:34:14.965Z,27.63
2022-12-09T19:36:42.408Z,26.65
2022-12-09T19:39:10.184Z,25.27
2022-12-09T19:41:38.056Z,25.35
2022-12-09T19:44:05.269Z,24.77
2022-12-09T19:46:33.062Z,25.40
2022-12-09T19:49:00.124Z,23.52
2022-12-09T19:51:27.612Z,25.33
2022-12-09T19:53:56.224Z,23.90
2022-12-09T19:56:23.188Z,24.67
2022-12-09T19:58:50.809Z,24.45
2022-12-09T20:01:26.529Z,24.73
2022-12-09T20:04:25.236Z,24.40
2022-12-09T20:06:51.893Z,23.95
2022-12-09T20:09:24.081Z,27.10
2022-12-09T20:11:52.605Z,27.13
2022-12-09T20:14:19.127Z,26.92
2022-12-09T20:16:45.575Z,28.30
2022-12-09T20:19:12.173Z,26.25
2022-12-09T20:21:40.448Z,26.73
2022-12-09T20:24:08.593Z,28.13
2022-12-09T20:26:36.914Z,25.67
2022-12-09T20:29:06.618Z,27.35
2022-12-09T20:31:35.398Z,24.95
2022-12-09T20:34:05.582Z,26.52
2022-12-09T20:36:34.657Z,26.55
2022-12-09T20:39:11.133Z,27.35
2022-12-09T20:41:37.850Z,27.05
2022-12-09T20:44:04.446Z,26.00
2022-12-09T20:46:32.471Z,26.35
2022-12-09T20:48:59.687Z,24.02
2022-12-09T20:51:33.729Z,25.23
2022-12-09T20:54:00.966Z,25.67
2022-12-09T20:56:29.385Z,26.20
2022-12-09T20:58:56.864Z,24.02
2022-12-09T21:01:25.646Z,25.42
2022-12-09T21:03:53.500Z,24.23
2022-12-09T21:06:22.470Z,23.60
2022-12-09T21:08:49.052Z,24.65
2022-12-09T21:11:19.134Z,23.08
2022-12-09T21:13:48.884Z,22.85
2022-12-09T21:16:21.298Z,22.00
2022-12-09T21:18:49.681Z,22.33
2022-12-09T21:21:17.860Z,22.95
2022-12-09T21:23:44.816Z,23.55
2022-12-09T21:26:16.859Z,23.13
2022-12-09T21:28:45.297Z,23.33
2022-12-09T21:31:15.743Z,22.23
2022-12-09T21:33:43.663Z,22.57
2022-12-09T21:36:15.778Z,23.83
2022-12-09T21:38:42.937Z,21.70
2022-12-09T21:41:12.206Z,22.80
2022-12-09T21:43:39.050Z,23.88
2022-12-09T21:46:08.312Z,23.13
2022-12-09T21:48:35.396Z,23.98
2022-12-09T21:51:03.006Z,21.27
2022-12-09T21:53:30.485Z,22.25
2022-12-09T21:56:07.073Z,22.90
2022-12-09T21:58:34.861Z,23.75
2022-12-09T22:01:12.642Z,24.40
2022-12-09T22:03:39.555Z,23.50
2022-12-09T22:06:07.828Z,25.02
2022-12-09T22:08:35.231Z,24.95
2022-12-09T22:11:06.805Z,23.45
2022-12-09T22:13:39.027Z,23.50
2022-12-09T22:16:20.169Z,23.13
2022-12-09T22:18:47.839Z,23.70
2022-12-09T22:21:26.401Z,21.70
2022-12-09T22:23:55.434Z,20.67
2022-12-09T22:26:22.997Z,19.10
2022-12-09T22:28:49.532Z,20.42
2022-12-09T22:31:21.428Z,21.05
2022-12-09T22:33:49.254Z,19.70
2022-12-09T22:36:16.391Z,18.92
2022-12-09T22:38:43.675Z,19.73
2022-12-09T22:41:15.943Z,18.52
2022-12-09T22:43:43.050Z,20.08
2022-12-09T22:46:16.271Z,17.00
2022-12-09T22:48:43.780Z,19.30
2022-12-09T22:51:16.752Z,19.48
2022-12-09T22:53:43.824Z,19.60
2022-12-09T22:56:11.752Z,18.75
2022-12-09T22:58:38.769Z,18.40
2022-12-09T23:01:14.511Z,20.17
2022-12-09T23:03:41.302Z,18.90
2022-12-09T23:06:08.666Z,18.85
2022-12-09T23:08:37.129Z,19.35
2022-12-09T23:11:10.581Z,16.58
2022-12-09T23:13:40.905Z,18.90
2022-12-09T23:16:12.366Z,19.55
2022-12-09T23:18:39.581Z,18.05
2022-12-09T23:21:10.176Z,18.35
2022-12-09T23:23:37.000Z,18.70
2022-12-09T23:26:12.953Z,17.55
2022-12-09T23:28:42.202Z,18.95
2022-12-09T23:31:10.911Z,18.75
2022-12-09T23:33:39.286Z,19.05
2022-12-09T23:36:11.540Z,19.70
2022-12-09T23:38:38.177Z,17.40
2022-12-09T23:41:05.290Z,18.23
2022-12-09T23:43:33.603Z,18.08
2022-12-09T23:46:05.398Z,17.23
2022-12-09T23:48:34.504Z,19.13
2022-12-09T23:51:28.491Z,18.63
2022-12-09T23:53:57.781Z,17.95
2022-12-09T23:56:26.393Z,17.92
2022-12-09T23:58:57.946Z,18.45
